DW4698 Weather Reports


Display with metric or nautical units.
time (UTC)temp
F
wind
direction
speed
MPH
gust
MPH
rain 1hr
in
rain 24hr
in
rain mn
in
humidity
%
barometer
mb
20181219005449 50 168 1.0 12.0 0.00 0.59 0.55 76 1013.6
20181219004505 50 164 0.0 8.0 0.00 0.59 0.55 75 1013.4
20181219003520 50 184 0.0 8.0 0.00 0.59 0.55 75 1013.1
20181219002453 51 141 0.0 4.0 0.00 0.59 0.55 76 1013.2
20181219001507 51 155 0.0 12.0 0.00 0.59 0.55 76 1012.9
20181219000453 51 198 0.0 10.0 0.00 0.59 0.55 75 1012.9
20181218235420 51 169 0.0 8.0 0.00 0.59 0.55 75 1012.8
20181218234440 52 156 0.0 8.0 0.00 0.59 0.55 75 1012.6
20181218233431 52 202 0.0 2.0 0.00 0.59 0.55 75 1012.6
20181218232437 52 119 0.0 0.0 0.00 0.59 0.55 75 1012.2
20181218231412 52 180 0.0 10.0 0.00 0.59 0.55 75 1012.0
20181218230404 52 183 0.0 0.0 0.00 0.59 0.55 77 1012.1
20181218225401 52 146 0.0 6.0 0.00 0.59 0.55 77 1012.0
20181218224342 52 229 0.0 0.0 0.00 0.59 0.55 79 1012.0
20181218223309 52 168 0.0 7.0 0.00 0.59 0.55 81 1011.5
20181218222245 52 169 0.0 12.0 0.00 0.59 0.55 84 1011.6
20181218221225 51 153 1.0 12.0 0.00 0.59 0.55 85 1011.6
20181218220230 51 191 0.0 7.0 0.00 0.59 0.55 85 1011.3
20181218215231 51 152 1.0 11.0 0.00 0.59 0.55 85 1011.0
20181218214215 51 153 0.0 11.0 0.00 0.59 0.55 86 1010.8
20181218213217 51 167 1.0 9.0 0.00 0.59 0.55 87 1010.6
20181218212211 51 148 2.0 10.0 0.00 0.59 0.55 88 1010.2
20181218211219 51 150 2.0 14.0 0.00 0.59 0.55 88 1009.7
20181218210145 51 163 2.0 16.0 0.00 0.59 0.55 88 1009.7
20181218205109 51 180 3.0 16.0 0.00 0.59 0.55 88 1009.3
20181218204107 51 157 2.0 13.0 0.00 0.59 0.55 87 1009.1
20181218203115 50 168 3.0 14.0 0.00 0.59 0.55 87 1008.6
20181218202055 50 186 3.0 14.0 0.00 0.59 0.55 88 1008.6
20181218201107 50 163 0.0 8.0 0.00 0.59 0.55 88 1010.4
20181218200107 50 261 0.0 8.0 0.00 0.58 0.53 87 1010.0
20181218195054 51 273 1.0 6.0 0.06 0.58 0.53 87 1010.1
20181218194038 51 211 0.0 1.0 0.04 0.57 0.52 87 1009.9
20181218193001 52 209 0.0 2.0 0.05 0.56 0.52 87 1009.7
20181218192017 52 238 0.0 9.0 0.12 0.56 0.52 86 1009.6
20181218191011 52 40 0.0 9.0 0.00 0.54 0.50 86 1009.6
20181218185955 52 248 1.0 10.0 0.00 0.54 0.50 85 1009.0
20181218184949 52 317 0.0 7.0 0.00 0.53 0.49 86 1008.7
20181218184009 51 53 0.0 4.0 0.00 0.53 0.49 86 1008.4
20181218182956 51 243 0.0 0.0 0.00 0.53 0.49 86 1008.5
20181218181945 51 154 0.0 0.0 0.06 0.53 0.49 86 1008.4
20181218180945 51 170 0.0 0.0 0.06 0.52 0.48 85 1008.0
20181218175934 51 153 0.0 6.0 0.06 0.52 0.47 84 1007.5
20181218174858 51 155 0.0 7.0 0.06 0.50 0.46 84 1007.2
20181218173825 52 159 0.0 5.0 0.10 0.49 0.45 82 1006.9
20181218172750 52 165 0.0 3.0 0.09 0.47 0.43 81 1006.9
20181218171734 53 173 0.0 0.0 0.00 0.45 0.42 78 1006.4
20181218170754 54 159 0.0 6.0 0.00 0.45 0.41 75 1006.0
20181218165743 53 167 0.0 6.0 0.00 0.45 0.41 77 1006.0
20181218164748 53 144 0.0 10.0 0.00 0.45 0.41 77 1005.8
20181218163806 53 172 0.0 3.0 0.00 0.45 0.41 77 1006.0
20181218162741 53 186 2.0 12.0 0.00 0.45 0.41 76 1005.9
20181218161712 52 165 1.0 12.0 0.00 0.45 0.41 79 1005.7
20181218160707 52 162 0.0 8.0 0.00 0.44 0.40 81 1005.4
20181218155723 52 157 0.0 8.0 0.00 0.44 0.40 81 1005.4
20181218154715 52 157 0.0 8.0 0.05 0.44 0.40 81 1005.4
20181218153637 52 242 1.0 12.0 0.05 0.43 0.39 81 1005.4
20181218152637 52 128 3.0 12.0 0.07 0.43 0.39 80 1005.4
20181218151658 52 187 1.0 5.0 0.00 0.41 0.37 81 1005.6
20181218150713 52 171 1.0 0.0 0.00 0.41 0.37 82 1005.8
20181218145637 51 178 1.0 11.0 0.04 0.40 0.36 83 1005.8
20181218144602 51 163 1.0 6.0 0.04 0.39 0.36 84 1005.9
20181218143623 51 161 0.0 9.0 0.00 0.39 0.35 83 1005.8
20181218142636 52 171 1.0 0.0 0.04 0.38 0.33 82 1005.9
20181218141622 51 198 2.0 16.0 0.06 0.38 0.33 82 1006.0
20181218140626 51 213 0.0 8.0 0.06 0.37 0.33 84 1006.2
20181218135633 51 161 0.0 3.0 0.06 0.36 0.32 82 1006.3
20181218134612 51 159 2.0 8.0 0.08 0.35 0.31 82 1006.4
20181218133558 50 159 0.0 6.0 0.00 0.34 0.29 83 1006.4
20181218132524 51 146 0.0 7.0 0.00 0.34 0.29 82 1006.4
20181218131504 50 134 2.0 11.0 0.00 0.34 0.29 82 1006.6
20181218130437 50 163 1.0 9.0 0.00 0.37 0.29 85 1006.8
20181218125420 49 204 0.0 3.0 0.00 0.37 0.29 86 1006.8
20181218124411 49 190 0.0 0.0 0.04 0.37 0.29 86 1006.7
20181218123417 49 171 1.0 6.0 0.04 0.37 0.29 86 1007.1
20181218122426 49 159 1.0 9.0 0.05 0.36 0.28 86 1007.5
20181218121353 48 202 0.0 6.0 0.05 0.35 0.26 87 1007.7
20181218120336 48 241 0.0 7.0 0.05 0.34 0.26 87 1007.9
20181218115342 48 155 0.0 7.0 0.05 0.34 0.26 87 1008.2
20181218114317 48 171 1.0 6.0 0.10 0.33 0.25 87 1008.7
20181218113329 48 217 1.0 10.0 0.11 0.32 0.23 87 1009.1
20181218112259 48 252 1.0 11.0 0.06 0.29 0.21 87 1009.5
20181218111300 48 185 2.0 8.0 0.08 0.29 0.20 87 1009.5
20181218110237 49 140 2.0 10.0 0.14 0.28 0.19 87 1009.8
20181218105212 49 180 1.0 6.0 0.12 0.25 0.16 86 1010.0
20181218104136 49 182 3.0 10.0 0.07 0.24 0.14 87 1010.1
20181218103156 48 164 0.0 7.0 0.04 0.24 0.14 88 1010.3
20181218102143 48 188 0.0 0.0 0.05 0.22 0.13 88 1010.4
20181218101151 48 211 0.0 0.0 0.05 0.21 0.12 87 1010.6
20181218100211 48 175 0.0 0.0 0.05 0.20 0.11 87 1010.7
20181218095228 48 175 1.0 0.0 0.10 0.20 0.11 86 1010.9
20181218094231 48 178 0.0 4.0 0.10 0.19 0.09 86 1011.0
20181218093159 48 175 0.0 0.0 0.09 0.16 0.07 86 1011.1
20181218092122 49 175 0.0 3.0 0.07 0.15 0.06 85 1011.2
20181218091142 49 163 1.0 9.0 0.09 0.14 0.05 84 1011.1
20181218090158 48 174 0.0 6.0 0.04 0.13 0.03 85 1011.2
20181218085129 48 167 0.0 4.0 0.00 0.12 0.02 84 1011.4
20181218084125 48 180 0.0 3.0 0.00 0.12 0.02 84 1011.6
20181218083115 48 186 0.0 1.0 0.00 0.11 0.01 83 1011.7
20181218082133 48 174 1.0 0.0 0.00 0.11 0.01 82 1011.7
20181218081111 48 166 0.0 5.0 0.04 0.10 0.00 82 1011.8
20181218080129 48 182 1.0 0.0 0.04 0.10 0.00 81 1012.1
20181218075125 48 213 0.0 3.0 0.04 0.09 0.09 81 1012.2
20181218074139 49 162 3.0 9.0 0.04 0.09 0.09 79 1012.4
20181218073154 49 142 0.0 9.0 0.04 0.08 0.08 80 1012.4
20181218072124 49 207 0.0 6.0 0.00 0.07 0.07 79 1012.5
20181218071054 50 169 0.0 3.0 0.00 0.07 0.07 76 1012.7
20181218070057 50 200 0.0 7.0 0.00 0.06 0.06 74 1012.7
20181218065025 51 153 1.0 6.0 0.00 0.06 0.06 70 1012.6
20181218063957 50 163 0.0 13.0 0.00 0.05 0.05 71 1012.6
20181218063019 48 178 0.0 4.0 0.00 0.05 0.05 74 1012.4
20181218062022 46 179 0.0 0.0 0.00 0.05 0.05 81 1012.4
20181218061001 44 179 0.0 0.0 0.00 0.05 0.05 85 1012.2
20181218060023 43 179 0.0 0.0 0.00 0.05 0.05 87 1012.4
20181218055024 43 179 0.0 0.0 0.00 0.05 0.05 88 1012.3
20181218053954 43 179 0.0 0.0 0.00 0.05 0.05 87 1012.4
20181218053008 43 179 0.0 0.0 0.00 0.05 0.05 87 1012.2
20181218052011 43 179 0.0 0.0 0.00 0.05 0.05 87 1012.3
20181218050950 43 179 0.0 0.0 0.00 0.05 0.05 87 1012.3
20181218045958 43 179 0.0 0.0 0.00 0.05 0.05 87 1012.4
20181218045005 43 179 0.0 0.0 0.00 0.05 0.05 87 1012.6
20181218043934 43 179 0.0 0.0 0.00 0.05 0.05 87 1012.7
20181218042858 43 179 0.0 0.0 0.00 0.05 0.05 86 1013.0
20181218041834 43 179 0.0 0.0 0.00 0.05 0.05 86 1013.0
20181218040821 43 179 0.0 0.0 0.00 0.05 0.05 86 1013.2
20181218035836 43 179 0.0 0.0 0.00 0.05 0.05 86 1013.1
20181218034857 43 179 0.0 0.0 0.00 0.05 0.05 86 1013.0
20181218033916 44 179 0.0 0.0 0.00 0.05 0.05 85 1013.4
20181218032906 44 179 0.0 0.0 0.00 0.05 0.05 85 1013.4
20181218031830 44 179 0.0 0.0 0.00 0.05 0.05 85 1013.5
20181218030814 44 179 0.0 0.0 0.00 0.05 0.05 85 1013.6
20181218025740 44 179 0.0 0.0 0.00 0.05 0.05 85 1013.7
20181218024732 44 179 0.0 0.0 0.00 0.05 0.05 85 1013.8
20181218023752 44 179 0.0 0.0 0.00 0.05 0.05 86 1014.0
20181218022801 44 179 0.0 0.0 0.00 0.05 0.05 87 1014.0
20181218021814 44 179 0.0 0.0 0.00 0.05 0.05 87 1014.1
20181218020746 43 179 0.0 0.0 0.00 0.05 0.05 87 1014.4
20181218015751 43 179 0.0 0.0 0.00 0.05 0.05 87 1014.3
20181218014719 43 179 0.0 0.0 0.00 0.05 0.05 86 1014.1
20181218013707 43 179 0.0 0.0 0.00 0.05 0.05 85 1014.0
20181218012659 43 179 0.0 0.0 0.00 0.05 0.05 85 1014.2
20181218011627 43 179 0.0 0.0 0.00 0.05 0.05 83 1014.2
20181218010604 44 179 0.0 0.0 0.00 0.05 0.05 82 1014.2